LIBN

Details ICAO LIBN (LCC)
Name LECCE
Region Italy
Timezone Europe/Rome (UTC+1.0)
Plans Departing 26
Arriving 18
Stats Elevation 156 ft / 48 m (AMSL)
Location 40.238982° 18.133091°
Runways 1
Magnetic Variation 3.886° E
Sunrise 2017-12-15 06:04:17 UTC / 2017-12-15 07:04:17 Local
Sunset 2017-12-15 15:23:42 UTC / 2017-12-15 16:23:42 Local
Advertisement - Login to hide

Runways

ID Width Length Bearing (true) Bearing (mag) Surface Threshold Offset Overrun Length
14 197 ft / 60 m 6,786 ft / 2,068 m 145.87° 141.98° Asphalt 197 ft / 60 m 0 ft / 0 m
32 197 ft / 60 m 6,786 ft / 2,068 m 325.87° 321.98° Asphalt 448 ft / 137 m 0 ft / 0 m

Approach Navaids

Runway Type Ident Frequency Range Bearing (true) Bearing (mag) Slope Elevation
32 Localiser GAL 111.75 MHz 18 nm / 33 km 325.84° 321.95° - 162 ft / 49 m (AMSL)
32 Glidescope GAL 111.75 MHz 10 nm / 19 km 325.87° 321.98° 3.00° 208 ft / 63 m (AMSL)
32 DME GAL 111.75 MHz 18 nm / 33 km - - - 208 ft / 63 m (AMSL)

Map

Weather


0- 5 10 15 20 25 30 35+ Temperature / ° C

Clouds and Precipitation
Forecast for 2017-12-16 00:00 UTC. Updated an hour ago

Ground ~20,000 ft ~40,000 ft Winds

METAR

LIBN 151955Z 18014KT 9999 SCT015 14/13 Q1008 RMK BKN BKN080 VIS MIN 9999 WIND THR14 18013KT WIND THR32 18012KT BLU

TAF

Not found

Frequencies

Tower 122.10 MHz TWR
Approach 118.95 MHz APP
Tower 119.55 MHz TWR
Approach 122.10 MHz APP
Warning: Do not use this data for real-world aviation or navigation. No guarantee of current accuracy is given.